Terminal Aerodrome Forecast
Issued by NWS

Home | Current Version | Previous Version | Text Only | Print | Product List | Glossary On
Versions: 1 2 3 4 5 6 7 8 9 10 11 12 13 14 15 16
000
FTUS46 KMFR 271949 AAA
TAFRBG
TAF AMD
KRBG 271949Z 2720/2818 VRB03KT P6SM OVC015
     FM272100 VRB03KT P6SM SCT020 SCT100 BKN250
     FM280800 00000KT 1SM BR OVC004
     FM281700 VRB03KT 5SM BR OVC006=

USA.gov is the U.S. government's official web portal to all federal, state and local government web resources and services.